Private Wetterstation Sandau
Wetterdaten: Donnerstag, 02.08.2012
Datum Zeit Temp. A. Feuchte A. Luftdruck Regen Wind Richtung Richtung Taupunkt Windchill
02.08.2012 00:01 18,9 C 65 % 1014,6 hPa 0,0 l/m 7,9 km/h (2 Bft) SO 135 12,2 C 18,9 C
02.08.2012 00:06 18,9 C 65 % 1014,5 hPa 0,0 l/m 3,6 km/h (1 Bft) O 90 12,2 C 18,9 C
02.08.2012 00:11 18,9 C 66 % 1014,4 hPa 0,0 l/m 3,6 km/h (1 Bft) SO 135 12,4 C 18,9 C
02.08.2012 00:16 18,8 C 66 % 1014,3 hPa 0,0 l/m 4,0 km/h (1 Bft) O 90 12,3 C 18,8 C
02.08.2012 00:21 18,6 C 66 % 1014,5 hPa 0,0 l/m 4,3 km/h (1 Bft) SO 135 12,1 C 18,6 C
02.08.2012 00:26 18,6 C 66 % 1014,5 hPa 0,0 l/m 0,0 km/h (0 Bft) O 90 12,1 C 18,6 C
02.08.2012 00:31 18,5 C 66 % 1014,5 hPa 0,0 l/m 2,2 km/h (1 Bft) O-SO 112 12,0 C 18,5 C
02.08.2012 00:36 18,4 C 66 % 1014,5 hPa 0,0 l/m 2,5 km/h (1 Bft) S-SO 157 11,9 C 18,4 C
02.08.2012 00:41 18,4 C 66 % 1014,6 hPa 0,0 l/m 2,9 km/h (1 Bft) O-SO 112 11,9 C 18,4 C
02.08.2012 00:46 18,4 C 67 % 1014,6 hPa 0,0 l/m 2,9 km/h (1 Bft) SO 135 12,2 C 18,4 C
02.08.2012 00:51 18,3 C 67 % 1014,6 hPa 0,0 l/m 3,2 km/h (1 Bft) O-SO 112 12,1 C 18,3 C
02.08.2012 00:56 18,2 C 67 % 1014,6 hPa 0,0 l/m 5,4 km/h (1 Bft) O 90 12,0 C 18,2 C
02.08.2012 01:01 18,1 C 68 % 1014,5 hPa 0,0 l/m 5,0 km/h (1 Bft) O-SO 112 12,1 C 18,1 C
02.08.2012 01:06 18,1 C 68 % 1014,2 hPa 0,0 l/m 4,0 km/h (1 Bft) O 90 12,1 C 18,1 C
02.08.2012 01:11 18,1 C 68 % 1014,2 hPa 0,0 l/m 4,7 km/h (1 Bft) O-SO 112 12,1 C 18,1 C
02.08.2012 01:16 18,0 C 68 % 1014,1 hPa 0,0 l/m 7,6 km/h (2 Bft) SO 135 12,0 C 18,0 C
02.08.2012 01:21 17,9 C 68 % 1014,1 hPa 0,0 l/m 2,5 km/h (1 Bft) O-SO 112 11,9 C 17,9 C
02.08.2012 01:26 17,9 C 68 % 1014,0 hPa 0,0 l/m 6,1 km/h (2 Bft) O-SO 112 11,9 C 17,9 C
02.08.2012 01:31 17,9 C 69 % 1014,0 hPa 0,0 l/m 6,8 km/h (2 Bft) O 90 12,1 C 17,9 C
02.08.2012 01:36 17,8 C 69 % 1013,9 hPa 0,0 l/m 4,7 km/h (1 Bft) SO 135 12,0 C 17,8 C
02.08.2012 01:41 17,8 C 69 % 1013,9 hPa 0,0 l/m 8,6 km/h (2 Bft) O-SO 112 12,0 C 17,8 C
02.08.2012 01:46 17,8 C 69 % 1014,0 hPa 0,0 l/m 2,5 km/h (1 Bft) O-NO 67 12,0 C 17,8 C
02.08.2012 01:51 17,8 C 69 % 1013,9 hPa 0,0 l/m 4,0 km/h (1 Bft) O-SO 112 12,0 C 17,8 C
02.08.2012 01:56 17,8 C 69 % 1013,8 hPa 0,0 l/m 4,7 km/h (1 Bft) O-SO 112 12,0 C 17,8 C
02.08.2012 02:01 17,8 C 69 % 1013,8 hPa 0,0 l/m 10,1 km/h (2 Bft) O-SO 112 12,0 C 17,8 C
02.08.2012 02:06 17,8 C 70 % 1013,8 hPa 0,0 l/m 5,0 km/h (1 Bft) O-SO 112 12,3 C 17,8 C
02.08.2012 02:11 17,6 C 70 % 1013,7 hPa 0,0 l/m 4,7 km/h (1 Bft) O-SO 112 12,1 C 17,6 C
02.08.2012 02:16 17,6 C 70 % 1013,8 hPa 0,0 l/m 5,0 km/h (1 Bft) O-NO 67 12,1 C 17,6 C
02.08.2012 02:21 17,5 C 70 % 1013,8 hPa 0,0 l/m 7,2 km/h (2 Bft) O-SO 112 12,0 C 17,5 C
02.08.2012 02:26 17,5 C 71 % 1013,8 hPa 0,0 l/m 5,0 km/h (1 Bft) O 90 12,2 C 17,5 C
02.08.2012 02:31 17,4 C 71 % 1013,7 hPa 0,0 l/m 5,4 km/h (1 Bft) O 90 12,1 C 17,4 C
02.08.2012 02:36 17,4 C 72 % 1013,8 hPa 0,0 l/m 8,3 km/h (2 Bft) SO 135 12,3 C 17,4 C
02.08.2012 02:41 17,4 C 72 % 1013,7 hPa 0,0 l/m 5,4 km/h (1 Bft) O-SO 112 12,3 C 17,4 C
02.08.2012 02:46 17,4 C 72 % 1013,7 hPa 0,0 l/m 6,1 km/h (2 Bft) SO 135 12,3 C 17,4 C
02.08.2012 02:51 17,4 C 72 % 1013,4 hPa 0,0 l/m 9,0 km/h (2 Bft) SO 135 12,3 C 17,4 C
02.08.2012 02:56 17,4 C 72 % 1013,4 hPa 0,0 l/m 2,9 km/h (1 Bft) O 90 12,3 C 17,4 C
02.08.2012 03:01 17,4 C 72 % 1013,4 hPa 0,0 l/m 9,0 km/h (2 Bft) O 90 12,3 C 17,4 C
02.08.2012 03:06 17,3 C 73 % 1013,4 hPa 0,0 l/m 9,4 km/h (2 Bft) O 90 12,4 C 17,3 C
02.08.2012 03:11 17,3 C 73 % 1013,4 hPa 0,0 l/m 4,0 km/h (1 Bft) O 90 12,4 C 17,3 C
02.08.2012 03:16 17,3 C 73 % 1013,4 hPa 0,0 l/m 3,2 km/h (1 Bft) O 90 12,4 C 17,3 C
02.08.2012 03:21 17,3 C 73 % 1013,4 hPa 0,0 l/m 5,4 km/h (1 Bft) O-SO 112 12,4 C 17,3 C
02.08.2012 03:26 17,3 C 74 % 1013,3 hPa 0,0 l/m 3,2 km/h (1 Bft) O-SO 112 12,6 C 17,3 C
02.08.2012 03:31 17,2 C 74 % 1013,3 hPa 0,0 l/m 1,4 km/h (1 Bft) SO 135 12,5 C 17,2 C
02.08.2012 03:36 17,2 C 74 % 1013,2 hPa 0,0 l/m 2,5 km/h (1 Bft) O 90 12,5 C 17,2 C
02.08.2012 03:41 17,2 C 74 % 1013,1 hPa 0,0 l/m 4,0 km/h (1 Bft) O-SO 112 12,5 C 17,2 C
02.08.2012 03:46 17,1 C 74 % 1013,2 hPa 0,0 l/m 4,0 km/h (1 Bft) O-SO 112 12,4 C 17,1 C
02.08.2012 03:51 17,1 C 75 % 1013,2 hPa 0,0 l/m 4,0 km/h (1 Bft) O-SO 112 12,6 C 17,1 C
02.08.2012 03:56 17,0 C 75 % 1013,2 hPa 0,0 l/m 2,2 km/h (1 Bft) O-NO 67 12,5 C 17,0 C
02.08.2012 04:01 16,9 C 75 % 1013,0 hPa 0,0 l/m 2,2 km/h (1 Bft) SO 135 12,4 C 16,9 C
02.08.2012 04:06 16,9 C 75 % 1012,9 hPa 0,0 l/m 3,6 km/h (1 Bft) S-SO 157 12,4 C 16,9 C
02.08.2012 04:11 16,9 C 75 % 1012,9 hPa 0,0 l/m 0,0 km/h (0 Bft) O-SO 112 12,4 C 16,9 C
02.08.2012 04:16 16,8 C 76 % 1012,9 hPa 0,0 l/m 2,2 km/h (1 Bft) SO 135 12,5 C 16,8 C
02.08.2012 04:21 16,8 C 76 % 1012,9 hPa 0,0 l/m 6,1 km/h (2 Bft) SO 135 12,5 C 16,8 C
02.08.2012 04:26 16,7 C 77 % 1012,8 hPa 0,0 l/m 4,7 km/h (1 Bft) O-NO 67 12,6 C 16,7 C
02.08.2012 04:31 16,7 C 77 % 1012,8 hPa 0,0 l/m 3,6 km/h (1 Bft) O-SO 112 12,6 C 16,7 C
02.08.2012 04:36 16,8 C 77 % 1012,7 hPa 0,0 l/m 7,9 km/h (2 Bft) O-SO 112 12,7 C 16,8 C
02.08.2012 04:41 16,8 C 77 % 1012,6 hPa 0,0 l/m 4,7 km/h (1 Bft) O 90 12,7 C 16,8 C
02.08.2012 04:46 16,8 C 77 % 1012,5 hPa 0,0 l/m 0,0 km/h (0 Bft) O-SO 112 12,7 C 16,8 C
02.08.2012 04:51 16,8 C 77 % 1012,7 hPa 0,0 l/m 0,0 km/h (0 Bft) O-SO 112 12,7 C 16,8 C
02.08.2012 04:56 16,8 C 77 % 1012,7 hPa 0,0 l/m 0,0 km/h (0 Bft) O-SO 112 12,7 C 16,8 C
02.08.2012 05:01 16,8 C 77 % 1012,8 hPa 0,0 l/m 0,0 km/h (0 Bft) SO 135 12,7 C 16,8 C
02.08.2012 05:06 16,7 C 77 % 1012,8 hPa 0,0 l/m 1,8 km/h (1 Bft) SO 135 12,6 C 16,7 C
02.08.2012 05:11 16,6 C 77 % 1012,7 hPa 0,0 l/m 0,0 km/h (0 Bft) SO 135 12,5 C 16,6 C
02.08.2012 05:16 16,5 C 77 % 1012,6 hPa 0,0 l/m 0,0 km/h (0 Bft) O-SO 112 12,5 C 16,5 C
02.08.2012 05:21 16,4 C 78 % 1012,6 hPa 0,0 l/m 4,3 km/h (1 Bft) O-SO 112 12,6 C 16,4 C
02.08.2012 05:26 16,3 C 78 % 1012,5 hPa 0,0 l/m 4,3 km/h (1 Bft) SO 135 12,5 C 16,3 C
02.08.2012 05:31 16,3 C 78 % 1012,6 hPa 0,0 l/m 2,9 km/h (1 Bft) O-SO 112 12,5 C 16,3 C
02.08.2012 05:36 16,2 C 79 % 1012,6 hPa 0,0 l/m 1,4 km/h (1 Bft) O-SO 112 12,6 C 16,2 C
02.08.2012 05:41 16,1 C 79 % 1012,6 hPa 0,0 l/m 2,9 km/h (1 Bft) O-SO 112 12,5 C 16,1 C
02.08.2012 05:46 16,1 C 79 % 1012,5 hPa 0,0 l/m 7,6 km/h (2 Bft) O-SO 112 12,5 C 16,1 C
02.08.2012 05:51 15,9 C 80 % 1012,5 hPa 0,0 l/m 3,6 km/h (1 Bft) SO 135 12,5 C 15,9 C
02.08.2012 05:56 15,9 C 80 % 1012,5 hPa 0,0 l/m 5,8 km/h (2 Bft) O-SO 112 12,5 C 15,9 C
02.08.2012 06:01 16,1 C 80 % 1012,4 hPa 0,0 l/m 5,8 km/h (2 Bft) O 90 12,6 C 16,1 C
02.08.2012 06:06 16,1 C 81 % 1012,4 hPa 0,0 l/m 3,6 km/h (1 Bft) O-SO 112 12,8 C 16,1 C
02.08.2012 06:11 16,2 C 81 % 1012,4 hPa 0,0 l/m 5,0 km/h (1 Bft) SO 135 12,9 C 16,2 C
02.08.2012 06:16 16,3 C 81 % 1012,5 hPa 0,0 l/m 2,9 km/h (1 Bft) O-SO 112 13,0 C 16,3 C
02.08.2012 06:21 16,6 C 80 % 1012,4 hPa 0,0 l/m 8,6 km/h (2 Bft) O-SO 112 13,1 C 16,6 C
02.08.2012 06:26 17,1 C 80 % 1012,3 hPa 0,0 l/m 7,6 km/h (2 Bft) O-NO 67 13,6 C 17,1 C
02.08.2012 06:31 17,8 C 78 % 1012,2 hPa 0,0 l/m 6,5 km/h (2 Bft) O-SO 112 13,9 C 17,8 C
02.08.2012 06:36 18,4 C 75 % 1012,2 hPa 0,0 l/m 4,0 km/h (1 Bft) SO 135 13,9 C 18,4 C
02.08.2012 06:41 18,8 C 73 % 1012,1 hPa 0,0 l/m 6,5 km/h (2 Bft) O-SO 112 13,9 C 18,8 C
02.08.2012 06:46 18,7 C 73 % 1012,1 hPa 0,0 l/m 4,7 km/h (1 Bft) O-SO 112 13,8 C 18,7 C
02.08.2012 06:51 18,8 C 73 % 1012,0 hPa 0,0 l/m 7,2 km/h (2 Bft) O-SO 112 13,9 C 18,8 C
02.08.2012 06:56 18,9 C 72 % 1012,0 hPa 0,0 l/m 5,8 km/h (2 Bft) SO 135 13,7 C 18,9 C
02.08.2012 07:01 19,1 C 72 % 1012,0 hPa 0,0 l/m 7,2 km/h (2 Bft) SO 135 13,9 C 19,1 C
02.08.2012 07:06 19,1 C 72 % 1011,9 hPa 0,0 l/m 11,9 km/h (2 Bft) O-SO 112 13,9 C 19,1 C
02.08.2012 07:11 19,2 C 72 % 1011,8 hPa 0,0 l/m 4,3 km/h (1 Bft) O 90 14,0 C 19,2 C
02.08.2012 07:16 19,2 C 73 % 1011,7 hPa 0,0 l/m 15,1 km/h (3 Bft) O 90 14,2 C 19,2 C
02.08.2012 07:21 19,3 C 73 % 1011,7 hPa 0,0 l/m 6,8 km/h (2 Bft) O-SO 112 14,3 C 19,3 C
02.08.2012 07:26 19,2 C 73 % 1011,7 hPa 0,0 l/m 9,4 km/h (2 Bft) O-SO 112 14,2 C 19,2 C
02.08.2012 07:31 19,3 C 73 % 1011,7 hPa 0,0 l/m 7,6 km/h (2 Bft) O-SO 112 14,3 C 19,3 C
02.08.2012 07:36 19,3 C 73 % 1011,6 hPa 0,0 l/m 11,2 km/h (2 Bft) O-SO 112 14,3 C 19,3 C
02.08.2012 07:41 19,5 C 73 % 1011,6 hPa 0,0 l/m 9,0 km/h (2 Bft) O-NO 67 14,5 C 19,5 C
02.08.2012 07:46 19,8 C 73 % 1011,5 hPa 0,0 l/m 6,8 km/h (2 Bft) O 90 14,8 C 19,8 C
02.08.2012 07:51 19,9 C 72 % 1011,6 hPa 0,0 l/m 15,5 km/h (3 Bft) O-SO 112 14,7 C 19,9 C
02.08.2012 07:56 20,1 C 72 % 1011,6 hPa 0,0 l/m 11,5 km/h (2 Bft) O-SO 112 14,9 C 20,1 C
02.08.2012 08:01 20,2 C 72 % 1011,5 hPa 0,0 l/m 5,4 km/h (1 Bft) O-NO 67 15,0 C 20,2 C
02.08.2012 08:06 20,5 C 71 % 1011,4 hPa 0,0 l/m 8,3 km/h (2 Bft) NO 45 15,1 C 20,5 C
02.08.2012 08:11 20,6 C 70 % 1011,4 hPa 0,0 l/m 4,0 km/h (1 Bft) O-SO 112 14,9 C 20,6 C
02.08.2012 08:16 20,8 C 70 % 1011,3 hPa 0,0 l/m 8,3 km/h (2 Bft) S-SO 157 15,1 C 20,8 C
02.08.2012 08:21 21,1 C 70 % 1011,2 hPa 0,0 l/m 7,2 km/h (2 Bft) O-NO 67 15,4 C 21,1 C
02.08.2012 08:26 21,4 C 69 % 1011,4 hPa 0,0 l/m 9,0 km/h (2 Bft) SO 135 15,5 C 21,4 C
02.08.2012 08:31 21,6 C 68 % 1011,3 hPa 0,0 l/m 6,8 km/h (2 Bft) SO 135 15,4 C 21,6 C
02.08.2012 08:36 21,8 C 68 % 1011,3 hPa 0,0 l/m 4,7 km/h (1 Bft) SO 135 15,6 C 21,8 C
02.08.2012 08:41 22,1 C 68 % 1011,2 hPa 0,0 l/m 9,0 km/h (2 Bft) O-SO 112 15,9 C 22,1 C
02.08.2012 08:46 22,4 C 67 % 1011,2 hPa 0,0 l/m 3,2 km/h (1 Bft) O-SO 112 16,0 C 22,4 C
02.08.2012 08:51 22,7 C 65 % 1011,1 hPa 0,0 l/m 7,6 km/h (2 Bft) SO 135 15,8 C 22,7 C
02.08.2012 08:56 22,9 C 64 % 1011,2 hPa 0,0 l/m 9,0 km/h (2 Bft) SO 135 15,7 C 22,9 C
02.08.2012 09:01 23,2 C 64 % 1011,0 hPa 0,0 l/m 3,6 km/h (1 Bft) O-SO 112 16,0 C 23,2 C
02.08.2012 09:06 23,4 C 63 % 1011,1 hPa 0,0 l/m 12,2 km/h (2 Bft) SO 135 15,9 C 23,4 C
02.08.2012 09:11 23,7 C 63 % 1011,1 hPa 0,0 l/m 8,3 km/h (2 Bft) O-SO 112 16,2 C 23,7 C
02.08.2012 09:16 23,9 C 62 % 1011,0 hPa 0,0 l/m 5,0 km/h (1 Bft) S-SO 157 16,2 C 23,9 C
02.08.2012 09:21 23,9 C 61 % 1010,9 hPa 0,0 l/m 12,2 km/h (2 Bft) SO 135 15,9 C 23,9 C
02.08.2012 09:26 24,1 C 61 % 1010,9 hPa 0,0 l/m 5,0 km/h (1 Bft) O 90 16,1 C 24,1 C
02.08.2012 09:31 24,2 C 61 % 1010,8 hPa 0,0 l/m 4,3 km/h (1 Bft) O 90 16,2 C 24,2 C
02.08.2012 09:36 24,5 C 61 % 1010,8 hPa 0,0 l/m 6,8 km/h (2 Bft) SO 135 16,5 C 24,5 C
02.08.2012 09:41 25,0 C 59 % 1010,8 hPa 0,0 l/m 14,4 km/h (3 Bft) S 180 16,4 C 25,0 C
02.08.2012 09:46 25,4 C 58 % 1010,9 hPa 0,0 l/m 4,0 km/h (1 Bft) O-SO 112 16,5 C 25,4 C
02.08.2012 09:51 25,7 C 57 % 1011,0 hPa 0,0 l/m 17,6 km/h (3 Bft) S 180 16,5 C 25,7 C
02.08.2012 09:56 25,9 C 57 % 1011,1 hPa 0,0 l/m 5,8 km/h (2 Bft) S 180 16,7 C 25,9 C
02.08.2012 10:01 26,1 C 56 % 1011,1 hPa 0,0 l/m 7,2 km/h (2 Bft) S-SO 157 16,6 C 26,1 C
02.08.2012 10:06 26,1 C 55 % 1011,2 hPa 0,0 l/m 10,8 km/h (2 Bft) S-SW 202 16,3 C 26,1 C
02.08.2012 10:11 26,3 C 55 % 1011,3 hPa 0,0 l/m 7,6 km/h (2 Bft) O-SO 112 16,5 C 26,3 C
02.08.2012 10:16 26,5 C 56 % 1011,2 hPa 0,0 l/m 2,9 km/h (1 Bft) S-SW 202 17,0 C 26,5 C
02.08.2012 10:21 26,6 C 55 % 1011,3 hPa 0,0 l/m 6,5 km/h (2 Bft) SW 225 16,8 C 26,6 C
02.08.2012 10:26 26,4 C 55 % 1011,3 hPa 0,0 l/m 6,5 km/h (2 Bft) S 180 16,6 C 26,4 C
02.08.2012 10:31 26,3 C 55 % 1011,2 hPa 0,0 l/m 4,0 km/h (1 Bft) S-SO 157 16,5 C 26,3 C
02.08.2012 10:36 26,1 C 55 % 1011,1 hPa 0,0 l/m 5,0 km/h (1 Bft) SO 135 16,3 C 26,1 C
02.08.2012 10:41 26,1 C 56 % 1011,1 hPa 0,0 l/m 1,8 km/h (1 Bft) S-SO 157 16,6 C 26,1 C
02.08.2012 10:46 26,0 C 56 % 1011,2 hPa 0,0 l/m 4,7 km/h (1 Bft) S 180 16,5 C 26,0 C
02.08.2012 10:51 26,1 C 56 % 1011,2 hPa 0,0 l/m 3,6 km/h (1 Bft) S-SO 157 16,6 C 26,1 C
02.08.2012 10:56 26,2 C 57 % 1011,3 hPa 0,0 l/m 4,3 km/h (1 Bft) S-SW 202 17,0 C 26,2 C
02.08.2012 11:01 26,5 C 56 % 1011,3 hPa 0,0 l/m 8,3 km/h (2 Bft) S-SW 202 17,0 C 26,5 C
02.08.2012 11:06 26,9 C 55 % 1011,4 hPa 0,0 l/m 4,7 km/h (1 Bft) W-SW 247 17,1 C 26,9 C
02.08.2012 11:11 27,2 C 55 % 1011,4 hPa 0,0 l/m 2,2 km/h (1 Bft) S-SW 202 17,4 C 27,2 C
02.08.2012 11:16 27,4 C 53 % 1011,4 hPa 0,0 l/m 4,0 km/h (1 Bft) SW 225 17,0 C 27,4 C
02.08.2012 11:21 27,5 C 53 % 1011,5 hPa 0,0 l/m 6,1 km/h (2 Bft) S-SW 202 17,0 C 27,5 C
02.08.2012 11:26 27,8 C 53 % 1011,6 hPa 0,0 l/m 8,6 km/h (2 Bft) W-SW 247 17,3 C 27,8 C
02.08.2012 11:31 28,1 C 52 % 1011,7 hPa 0,0 l/m 8,3 km/h (2 Bft) S 180 17,3 C 28,1 C
02.08.2012 11:36 28,1 C 49 % 1011,6 hPa 0,0 l/m 10,8 km/h (2 Bft) SW 225 16,4 C 28,1 C
02.08.2012 11:41 28,1 C 49 % 1011,7 hPa 0,0 l/m 3,6 km/h (1 Bft) SW 225 16,4 C 28,1 C
02.08.2012 11:46 28,1 C 49 % 1011,8 hPa 0,0 l/m 12,2 km/h (2 Bft) SW 225 16,4 C 28,1 C
02.08.2012 11:51 27,9 C 48 % 1012,0 hPa 0,0 l/m 6,5 km/h (2 Bft) S-SW 202 15,9 C 27,9 C
02.08.2012 11:56 27,9 C 49 % 1012,1 hPa 0,0 l/m 5,8 km/h (2 Bft) W-SW 247 16,2 C 27,9 C
02.08.2012 12:01 27,7 C 49 % 1012,0 hPa 0,0 l/m 10,4 km/h (2 Bft) SW 225 16,0 C 27,7 C
02.08.2012 12:06 27,5 C 49 % 1012,0 hPa 0,0 l/m 11,2 km/h (2 Bft) W-SW 247 15,8 C 27,5 C
02.08.2012 12:11 27,2 C 50 % 1011,9 hPa 0,0 l/m 12,2 km/h (2 Bft) W 270 15,9 C 27,2 C
02.08.2012 12:16 26,9 C 52 % 1011,8 hPa 0,0 l/m 3,2 km/h (1 Bft) S-SW 202 16,2 C 26,9 C
02.08.2012 12:21 26,5 C 53 % 1011,7 hPa 0,0 l/m 4,3 km/h (1 Bft) W 270 16,1 C 26,5 C
02.08.2012 12:26 26,1 C 57 % 1011,7 hPa 0,0 l/m 5,8 km/h (2 Bft) W-SW 247 16,9 C 26,1 C
02.08.2012 12:31 25,8 C 59 % 1011,9 hPa 0,0 l/m 4,0 km/h (1 Bft) S-SO 157 17,2 C 25,8 C
02.08.2012 12:36 25,3 C 61 % 1011,7 hPa 0,0 l/m 1,8 km/h (1 Bft) S 180 17,2 C 25,3 C
02.08.2012 12:41 25,1 C 62 % 1012,2 hPa 0,0 l/m 6,1 km/h (2 Bft) SW 225 17,3 C 25,1 C
02.08.2012 12:46 24,7 C 63 % 1012,1 hPa 0,0 l/m 0,0 km/h (0 Bft) S 180 17,2 C 24,7 C
02.08.2012 12:51 24,5 C 65 % 1011,9 hPa 0,0 l/m 3,6 km/h (1 Bft) S-SO 157 17,5 C 24,5 C
02.08.2012 12:56 24,4 C 66 % 1011,8 hPa 0,5 l/m 1,8 km/h (1 Bft) O-SO 112 17,6 C 24,4 C
02.08.2012 13:01 24,2 C 68 % 1012,0 hPa 0,0 l/m 4,0 km/h (1 Bft) SW 225 17,9 C 24,2 C
02.08.2012 13:06 24,4 C 71 % 1012,0 hPa 0,0 l/m 11,2 km/h (2 Bft) S-SW 202 18,8 C 24,4 C
02.08.2012 13:11 24,9 C 70 % 1012,0 hPa 0,0 l/m 11,2 km/h (2 Bft) SW 225 19,0 C 24,9 C
02.08.2012 13:16 25,0 C 69 % 1011,9 hPa 0,0 l/m 6,1 km/h (2 Bft) S-SO 157 18,9 C 25,0 C
02.08.2012 13:21 25,3 C 68 % 1012,0 hPa 0,0 l/m 4,7 km/h (1 Bft) S 180 19,0 C 25,3 C
02.08.2012 13:26 25,6 C 66 % 1011,8 hPa 0,0 l/m 5,4 km/h (1 Bft) SW 225 18,8 C 25,6 C
02.08.2012 13:31 25,6 C 64 % 1011,8 hPa 0,0 l/m 5,8 km/h (2 Bft) SW 225 18,3 C 25,6 C
02.08.2012 13:36 25,6 C 64 % 1011,9 hPa 0,0 l/m 7,2 km/h (2 Bft) W-SW 247 18,3 C 25,6 C
02.08.2012 13:41 25,7 C 64 % 1012,0 hPa 0,0 l/m 5,0 km/h (1 Bft) W-SW 247 18,4 C 25,7 C
02.08.2012 13:46 25,6 C 64 % 1012,0 hPa 0,0 l/m 1,8 km/h (1 Bft) S-SW 202 18,3 C 25,6 C
02.08.2012 13:51 25,6 C 64 % 1012,1 hPa 0,0 l/m 8,6 km/h (2 Bft) W-SW 247 18,3 C 25,6 C
02.08.2012 13:56 25,6 C 63 % 1012,2 hPa 0,0 l/m 10,8 km/h (2 Bft) S-SW 202 18,0 C 25,6 C
02.08.2012 14:01 25,6 C 63 % 1012,1 hPa 0,0 l/m 9,4 km/h (2 Bft) S-SW 202 18,0 C 25,6 C
02.08.2012 14:06 25,9 C 63 % 1012,1 hPa 0,0 l/m 11,2 km/h (2 Bft) W-SW 247 18,3 C 25,9 C
02.08.2012 14:11 26,3 C 61 % 1012,1 hPa 0,0 l/m 4,3 km/h (1 Bft) S 180 18,2 C 26,3 C
02.08.2012 14:16 26,6 C 61 % 1012,1 hPa 0,0 l/m 8,6 km/h (2 Bft) S-SW 202 18,4 C 26,6 C
02.08.2012 14:21 26,9 C 58 % 1012,1 hPa 0,0 l/m 6,8 km/h (2 Bft) SW 225 17,9 C 26,9 C
02.08.2012 14:26 27,1 C 59 % 1012,1 hPa 0,0 l/m 6,1 km/h (2 Bft) W-SW 247 18,4 C 27,1 C
02.08.2012 14:31 27,4 C 58 % 1012,1 hPa 0,0 l/m 6,5 km/h (2 Bft) S-SO 157 18,4 C 27,4 C
02.08.2012 14:36 27,6 C 56 % 1012,3 hPa 0,0 l/m 4,3 km/h (1 Bft) SW 225 18,0 C 27,6 C
02.08.2012 14:41 27,9 C 57 % 1012,3 hPa 0,0 l/m 5,4 km/h (1 Bft) SW 225 18,6 C 27,9 C
02.08.2012 14:46 28,1 C 55 % 1012,4 hPa 0,0 l/m 9,7 km/h (2 Bft) W-SW 247 18,2 C 28,1 C
02.08.2012 14:51 28,4 C 54 % 1012,3 hPa 0,0 l/m 9,4 km/h (2 Bft) S-SW 202 18,2 C 28,4 C
02.08.2012 14:56 28,9 C 54 % 1012,3 hPa 0,0 l/m 9,7 km/h (2 Bft) S-SW 202 18,6 C 28,9 C
02.08.2012 15:01 28,9 C 53 % 1012,2 hPa 0,0 l/m 7,2 km/h (2 Bft) SO 135 18,3 C 28,9 C
02.08.2012 15:06 28,6 C 53 % 1012,1 hPa 0,0 l/m 13,7 km/h (3 Bft) S-SW 202 18,1 C 28,6 C
02.08.2012 15:11 28,8 C 53 % 1012,2 hPa 0,0 l/m 6,1 km/h (2 Bft) S 180 18,2 C 28,8 C
02.08.2012 15:16 29,2 C 53 % 1012,1 hPa 0,0 l/m 8,3 km/h (2 Bft) S-SW 202 18,6 C 29,2 C
02.08.2012 15:21 29,4 C 53 % 1012,1 hPa 0,0 l/m 5,0 km/h (1 Bft) S-SW 202 18,8 C 29,4 C
02.08.2012 15:26 29,6 C 52 % 1012,4 hPa 0,0 l/m 10,4 km/h (2 Bft) W 270 18,7 C 29,6 C
02.08.2012 15:31 29,2 C 51 % 1012,3 hPa 0,0 l/m 16,9 km/h (3 Bft) W-SW 247 18,0 C 29,2 C
02.08.2012 15:36 28,6 C 52 % 1012,2 hPa 0,0 l/m 14,0 km/h (3 Bft) W-SW 247 17,8 C 28,6 C
02.08.2012 15:41 28,3 C 53 % 1012,1 hPa 0,0 l/m 6,8 km/h (2 Bft) W-SW 247 17,8 C 28,3 C
02.08.2012 15:46 28,4 C 54 % 1012,1 hPa 0,0 l/m 11,2 km/h (2 Bft) W-SW 247 18,2 C 28,4 C
02.08.2012 15:51 28,5 C 54 % 1012,2 hPa 0,0 l/m 2,2 km/h (1 Bft) S 180 18,3 C 28,5 C
02.08.2012 15:56 28,6 C 53 % 1012,1 hPa 0,0 l/m 5,0 km/h (1 Bft) SW 225 18,1 C 28,6 C
02.08.2012 16:01 29,1 C 53 % 1012,0 hPa 0,0 l/m 6,1 km/h (2 Bft) W-SW 247 18,5 C 29,1 C
02.08.2012 16:06 29,4 C 51 % 1011,8 hPa 0,0 l/m 3,2 km/h (1 Bft) W-SW 247 18,2 C 29,4 C
02.08.2012 16:11 29,8 C 50 % 1011,9 hPa 0,0 l/m 5,8 km/h (2 Bft) W 270 18,2 C 29,8 C
02.08.2012 16:16 29,8 C 50 % 1011,8 hPa 0,0 l/m 14,8 km/h (3 Bft) W-SW 247 18,2 C 29,8 C
02.08.2012 16:21 29,5 C 50 % 1011,8 hPa 0,0 l/m 6,8 km/h (2 Bft) S-SW 202 18,0 C 29,5 C
02.08.2012 16:26 28,9 C 50 % 1011,8 hPa 0,0 l/m 2,5 km/h (1 Bft) SW 225 17,4 C 28,9 C
02.08.2012 16:31 28,6 C 51 % 1011,9 hPa 0,0 l/m 6,8 km/h (2 Bft) W-SW 247 17,4 C 28,6 C
02.08.2012 16:36 28,3 C 52 % 1012,1 hPa 0,0 l/m 5,0 km/h (1 Bft) W-SW 247 17,5 C 28,3 C
02.08.2012 16:41 27,9 C 53 % 1011,9 hPa 0,0 l/m 5,8 km/h (2 Bft) W-SW 247 17,4 C 27,9 C
02.08.2012 16:46 27,7 C 53 % 1011,8 hPa 0,0 l/m 12,2 km/h (2 Bft) W-SW 247 17,2 C 27,7 C
02.08.2012 16:51 27,5 C 54 % 1012,1 hPa 0,0 l/m 6,1 km/h (2 Bft) SW 225 17,3 C 27,5 C
02.08.2012 16:56 27,2 C 54 % 1012,0 hPa 0,0 l/m 3,6 km/h (1 Bft) S 180 17,1 C 27,2 C
02.08.2012 17:01 27,0 C 55 % 1012,3 hPa 0,0 l/m 4,7 km/h (1 Bft) SW 225 17,2 C 27,0 C
02.08.2012 17:06 26,8 C 56 % 1012,0 hPa 0,0 l/m 6,1 km/h (2 Bft) SW 225 17,3 C 26,8 C
02.08.2012 17:11 26,7 C 56 % 1012,0 hPa 0,0 l/m 1,8 km/h (1 Bft) S 180 17,2 C 26,7 C
02.08.2012 17:16 26,6 C 56 % 1012,0 hPa 0,0 l/m 4,3 km/h (1 Bft) SW 225 17,1 C 26,6 C
02.08.2012 17:21 26,5 C 57 % 1012,0 hPa 0,0 l/m 5,4 km/h (1 Bft) SW 225 17,3 C 26,5 C
02.08.2012 17:26 26,4 C 58 % 1012,0 hPa 0,0 l/m 4,3 km/h (1 Bft) S-SW 202 17,5 C 26,4 C
02.08.2012 17:31 26,4 C 58 % 1011,9 hPa 0,0 l/m 2,5 km/h (1 Bft) S-SW 202 17,5 C 26,4 C
02.08.2012 17:36 26,2 C 60 % 1012,0 hPa 0,0 l/m 2,5 km/h (1 Bft) S-SW 202 17,8 C 26,2 C
02.08.2012 17:41 26,1 C 61 % 1012,0 hPa 0,0 l/m 2,9 km/h (1 Bft) S 180 18,0 C 26,1 C
02.08.2012 17:46 25,9 C 61 % 1012,0 hPa 0,0 l/m 3,6 km/h (1 Bft) S-SW 202 17,8 C 25,9 C
02.08.2012 17:51 25,7 C 62 % 1012,0 hPa 0,0 l/m 3,6 km/h (1 Bft) S-SW 202 17,9 C 25,7 C
02.08.2012 17:56 25,6 C 63 % 1012,2 hPa 0,0 l/m 16,9 km/h (3 Bft) W-SW 247 18,0 C 25,6 C
02.08.2012 18:01 25,3 C 66 % 1012,3 hPa 0,5 l/m 4,3 km/h (1 Bft) S-SW 202 18,5 C 25,3 C
02.08.2012 18:06 24,9 C 69 % 1012,3 hPa 0,5 l/m 4,7 km/h (1 Bft) S-SW 202 18,8 C 24,9 C
02.08.2012 18:11 24,4 C 70 % 1012,6 hPa 0,0 l/m 5,8 km/h (2 Bft) SW 225 18,6 C 24,4 C
02.08.2012 18:16 24,1 C 72 % 1012,7 hPa 0,0 l/m 3,6 km/h (1 Bft) SW 225 18,7 C 24,1 C
02.08.2012 18:21 23,9 C 73 % 1012,7 hPa 0,0 l/m 0,0 km/h (0 Bft) S-SW 202 18,8 C 23,9 C
02.08.2012 18:26 23,8 C 74 % 1012,8 hPa 0,0 l/m 2,2 km/h (1 Bft) S-SW 202 18,9 C 23,8 C
02.08.2012 18:31 23,7 C 75 % 1012,6 hPa 0,0 l/m 3,2 km/h (1 Bft) SO 135 19,0 C 23,7 C
02.08.2012 18:36 23,7 C 75 % 1012,5 hPa 0,0 l/m 2,5 km/h (1 Bft) S-SO 157 19,0 C 23,7 C
02.08.2012 18:41 23,8 C 75 % 1012,3 hPa 0,0 l/m 2,5 km/h (1 Bft) O-SO 112 19,1 C 23,8 C
02.08.2012 18:46 24,1 C 75 % 1012,3 hPa 0,0 l/m 4,0 km/h (1 Bft) S 180 19,4 C 24,1 C
02.08.2012 18:51 24,3 C 74 % 1012,5 hPa 0,0 l/m 2,5 km/h (1 Bft) S 180 19,4 C 24,3 C
02.08.2012 18:56 24,4 C 74 % 1012,5 hPa 0,0 l/m 2,5 km/h (1 Bft) S-SW 202 19,5 C 24,4 C
02.08.2012 19:01 24,5 C 73 % 1012,5 hPa 0,0 l/m 2,9 km/h (1 Bft) S 180 19,3 C 24,5 C
02.08.2012 19:06 24,6 C 72 % 1012,5 hPa 0,0 l/m 3,2 km/h (1 Bft) S-SW 202 19,2 C 24,6 C
02.08.2012 19:11 24,8 C 72 % 1012,6 hPa 0,0 l/m 2,2 km/h (1 Bft) SW 225 19,4 C 24,8 C
02.08.2012 19:16 24,8 C 72 % 1012,6 hPa 0,0 l/m 4,7 km/h (1 Bft) W-SW 247 19,4 C 24,8 C
02.08.2012 19:21 24,8 C 70 % 1012,5 hPa 0,0 l/m 14,4 km/h (3 Bft) SW 225 18,9 C 24,8 C
02.08.2012 19:26 24,6 C 69 % 1012,4 hPa 0,0 l/m 9,7 km/h (2 Bft) W-SW 247 18,5 C 24,6 C
02.08.2012 19:31 24,5 C 70 % 1012,5 hPa 0,0 l/m 4,0 km/h (1 Bft) S-SW 202 18,7 C 24,5 C
02.08.2012 19:36 24,4 C 70 % 1012,7 hPa 0,0 l/m 14,4 km/h (3 Bft) W 270 18,6 C 24,4 C
02.08.2012 19:41 24,3 C 71 % 1012,8 hPa 0,0 l/m 11,5 km/h (2 Bft) W-SW 247 18,7 C 24,3 C
02.08.2012 19:46 24,2 C 71 % 1012,8 hPa 0,0 l/m 18,4 km/h (3 Bft) W 270 18,6 C 24,2 C
02.08.2012 19:51 23,9 C 71 % 1012,8 hPa 0,0 l/m 9,4 km/h (2 Bft) W-SW 247 18,3 C 23,9 C
02.08.2012 19:56 23,9 C 67 % 1012,8 hPa 0,0 l/m 9,0 km/h (2 Bft) W-NW 292 17,4 C 23,9 C
02.08.2012 20:01 23,8 C 64 % 1012,8 hPa 0,0 l/m 8,6 km/h (2 Bft) W-NW 292 16,6 C 23,8 C
02.08.2012 20:06 23,7 C 63 % 1012,9 hPa 0,0 l/m 10,1 km/h (2 Bft) NW 315 16,2 C 23,7 C
02.08.2012 20:11 23,6 C 62 % 1013,0 hPa 0,0 l/m 6,1 km/h (2 Bft) W-NW 292 15,9 C 23,6 C
02.08.2012 20:16 23,4 C 63 % 1013,0 hPa 0,0 l/m 7,6 km/h (2 Bft) W 270 15,9 C 23,4 C
02.08.2012 20:21 23,3 C 63 % 1013,2 hPa 0,0 l/m 4,0 km/h (1 Bft) W 270 15,9 C 23,3 C
02.08.2012 20:26 23,2 C 63 % 1013,3 hPa 0,0 l/m 4,7 km/h (1 Bft) W 270 15,8 C 23,2 C
02.08.2012 20:31 23,0 C 63 % 1013,4 hPa 0,0 l/m 8,3 km/h (2 Bft) W-NW 292 15,6 C 23,0 C
02.08.2012 20:36 22,9 C 63 % 1013,3 hPa 0,0 l/m 7,2 km/h (2 Bft) NW 315 15,5 C 22,9 C
02.08.2012 20:41 22,8 C 63 % 1013,3 hPa 0,0 l/m 5,8 km/h (2 Bft) W-NW 292 15,4 C 22,8 C
02.08.2012 20:46 22,7 C 63 % 1013,5 hPa 0,0 l/m 5,8 km/h (2 Bft) W 270 15,3 C 22,7 C
02.08.2012 20:51 22,6 C 63 % 1013,5 hPa 0,0 l/m 0,0 km/h (0 Bft) W-NW 292 15,2 C 22,6 C
02.08.2012 20:56 22,4 C 63 % 1013,5 hPa 0,0 l/m 4,0 km/h (1 Bft) NW 315 15,0 C 22,4 C
02.08.2012 21:01 22,3 C 62 % 1013,7 hPa 0,0 l/m 1,4 km/h (1 Bft) W-NW 292 14,7 C 22,3 C
02.08.2012 21:06 22,2 C 63 % 1013,8 hPa 0,0 l/m 2,2 km/h (1 Bft) W 270 14,8 C 22,2 C
02.08.2012 21:11 22,1 C 63 % 1014,0 hPa 0,0 l/m 1,4 km/h (1 Bft) W 270 14,7 C 22,1 C
02.08.2012 21:16 22,0 C 64 % 1014,1 hPa 0,0 l/m 4,0 km/h (1 Bft) W 270 14,9 C 22,0 C
02.08.2012 21:21 21,9 C 64 % 1014,1 hPa 0,0 l/m 3,2 km/h (1 Bft) W-SW 247 14,8 C 21,9 C
02.08.2012 21:26 21,8 C 64 % 1014,0 hPa 0,0 l/m 3,2 km/h (1 Bft) W-SW 247 14,7 C 21,8 C
02.08.2012 21:31 21,8 C 64 % 1014,1 hPa 0,0 l/m 3,2 km/h (1 Bft) W 270 14,7 C 21,8 C
02.08.2012 21:36 21,6 C 65 % 1014,1 hPa 0,0 l/m 3,2 km/h (1 Bft) W 270 14,7 C 21,6 C
02.08.2012 21:41 21,6 C 65 % 1014,0 hPa 0,0 l/m 0,0 km/h (0 Bft) W 270 14,7 C 21,6 C
02.08.2012 21:46 21,5 C 65 % 1014,0 hPa 0,0 l/m 1,4 km/h (1 Bft) W-SW 247 14,6 C 21,5 C
02.08.2012 21:51 21,5 C 66 % 1014,1 hPa 0,0 l/m 8,3 km/h (2 Bft) W-SW 247 14,9 C 21,5 C
02.08.2012 21:56 21,4 C 66 % 1014,1 hPa 0,0 l/m 1,8 km/h (1 Bft) W-SW 247 14,8 C 21,4 C
02.08.2012 22:01 21,4 C 66 % 1014,0 hPa 0,0 l/m 2,5 km/h (1 Bft) W 270 14,8 C 21,4 C
02.08.2012 22:06 21,4 C 66 % 1014,1 hPa 0,0 l/m 4,0 km/h (1 Bft) W-NW 292 14,8 C 21,4 C
02.08.2012 22:11 21,3 C 66 % 1014,3 hPa 0,0 l/m 6,1 km/h (2 Bft) W 270 14,7 C 21,3 C
02.08.2012 22:16 21,3 C 66 % 1014,2 hPa 0,0 l/m 6,5 km/h (2 Bft) W 270 14,7 C 21,3 C
02.08.2012 22:21 21,3 C 67 % 1014,4 hPa 0,0 l/m 2,2 km/h (1 Bft) W 270 14,9 C 21,3 C
02.08.2012 22:26 21,3 C 66 % 1014,3 hPa 0,0 l/m 0,0 km/h (0 Bft) W 270 14,7 C 21,3 C
02.08.2012 22:31 21,2 C 66 % 1014,3 hPa 0,0 l/m 0,0 km/h (0 Bft) W 270 14,6 C 21,2 C
02.08.2012 22:36 21,2 C 67 % 1014,4 hPa 0,0 l/m 2,5 km/h (1 Bft) W-NW 292 14,8 C 21,2 C
02.08.2012 22:41 21,1 C 67 % 1014,5 hPa 0,0 l/m 0,0 km/h (0 Bft) W-NW 292 14,7 C 21,1 C
02.08.2012 22:46 21,1 C 68 % 1014,6 hPa 0,0 l/m 0,0 km/h (0 Bft) W-NW 292 15,0 C 21,1 C
02.08.2012 22:51 20,9 C 68 % 1014,8 hPa 0,0 l/m 0,0 km/h (0 Bft) W-NW 292 14,8 C 20,9 C
02.08.2012 22:56 20,9 C 68 % 1014,6 hPa 0,0 l/m 0,0 km/h (0 Bft) W-NW 292 14,8 C 20,9 C
02.08.2012 23:01 20,9 C 68 % 1014,6 hPa 0,0 l/m 0,0 km/h (0 Bft) W-NW 292 14,8 C 20,9 C
02.08.2012 23:06 20,8 C 69 % 1014,7 hPa 0,0 l/m 0,0 km/h (0 Bft) W-NW 292 14,9 C 20,8 C
02.08.2012 23:11 20,8 C 69 % 1014,6 hPa 0,0 l/m 0,0 km/h (0 Bft) W-NW 292 14,9 C 20,8 C
02.08.2012 23:16 20,8 C 69 % 1014,5 hPa 0,0 l/m 4,7 km/h (1 Bft) W-SW 247 14,9 C 20,8 C
02.08.2012 23:21 20,7 C 69 % 1014,7 hPa 0,0 l/m 2,2 km/h (1 Bft) W 270 14,8 C 20,7 C
02.08.2012 23:26 20,6 C 69 % 1014,8 hPa 0,0 l/m 1,8 km/h (1 Bft) W 270 14,7 C 20,6 C
02.08.2012 23:31 20,5 C 69 % 1014,9 hPa 0,0 l/m 2,2 km/h (1 Bft) NW 315 14,6 C 20,5 C
02.08.2012 23:36 20,4 C 70 % 1014,8 hPa 0,0 l/m 0,0 km/h (0 Bft) NW 315 14,7 C 20,4 C
02.08.2012 23:41 20,3 C 70 % 1014,8 hPa 0,0 l/m 0,0 km/h (0 Bft) NW 315 14,6 C 20,3 C
02.08.2012 23:46 20,2 C 69 % 1014,9 hPa 0,0 l/m 0,0 km/h (0 Bft) NW 315 14,3 C 20,2 C
02.08.2012 23:51 20,1 C 70 % 1014,7 hPa 0,0 l/m 0,0 km/h (0 Bft) NW 315 14,5 C 20,1 C
02.08.2012 23:56 20,0 C 70 % 1014,8 hPa 0,0 l/m 0,0 km/h (0 Bft) NW 315 14,4 C 20,0 C
_ Min-Zeit 05:51 11:51 09:31 - 00:26 - - 01:21 05:51
Minimum _ 15,9 C 48 % 1010,8 hPa - 0,0 km/h (0 Bft) - - 11,9 C 15,9 C
_ Max-Zeit 16:11 06:06 23:31 12:56 19:46 - - 18:56 16:11
Maximum _ 29,8 C 81 % 1014,9 hPa 0,5 l/m 18,4 km/h
W (3 Bft)
- - 19,5 C 29,8 C
Durchschnitt _ 22,5 C 65 % 1012,6 hPa #1,6 l/m 5,5 km/h (1 Bft) O-SO - 15,5 C 22,5 C
(c) by David Heller